Time;durP1;ratioP1;P1;durP2;ratioP2;P2;SDS_P1;SDS_P2;PMS_P1;PMS_P2;Temp;Humidity;BMP_temperature;BMP_pressure;BME280_temperature;BME280_humidity;BME280_pressure;Samples;Min_cycle;Max_cycle;Signal;HPM_P1;HPM_P2
2021/06/24 00:02:16;;;;;;;34.83;9.53;;;;;;;25.47;65.47;100654.47;1763748;79;21071;-57
2021/06/24 00:04:42;;;;;;;28.62;9.23;;;;;;;25.44;65.56;100653.58;1763086;79;21059;-57
2021/06/24 00:07:10;;;;;;;26.62;9.03;;;;;;;25.45;65.60;100652.52;1759631;79;21057;-57
2021/06/24 00:09:37;;;;;;;34.63;8.33;;;;;;;25.48;65.57;100656.14;1761355;79;21953;-57
2021/06/24 00:12:05;;;;;;;38.50;8.60;;;;;;;25.49;65.54;100652.41;1764332;79;21126;-57
2021/06/24 00:14:33;;;;;;;28.10;8.65;;;;;;;25.49;65.64;100649.72;1763860;79;21167;-57
2021/06/24 00:16:59;;;;;;;29.52;8.93;;;;;;;25.48;65.58;100650.75;1752580;79;21075;-57
2021/06/24 00:19:26;;;;;;;25.48;8.05;;;;;;;25.44;65.65;100644.16;1697818;82;21082;-57
2021/06/24 00:21:53;;;;;;;35.45;10.38;;;;;;;25.42;65.58;100640.82;1738324;79;21787;-57
2021/06/24 00:24:19;;;;;;;29.87;9.73;;;;;;;25.37;65.48;100636.10;1763205;79;21077;-57
2021/06/24 00:26:46;;;;;;;38.48;8.73;;;;;;;25.36;65.49;100635.25;1762102;79;21387;-58
2021/06/24 00:29:16;;;;;;;31.48;8.70;;;;;;;25.41;65.47;100631.92;1764089;79;21078;-57
2021/06/24 00:31:43;;;;;;;22.82;7.50;;;;;;;25.43;65.20;100636.56;1760120;79;21066;-58
2021/06/24 00:34:09;;;;;;;32.00;8.65;;;;;;;25.46;65.09;100639.38;1762757;79;21809;-57
2021/06/24 00:36:36;;;;;;;32.80;9.40;;;;;;;25.44;65.13;100632.03;1762199;79;21058;-58
2021/06/24 00:39:03;;;;;;;35.00;10.35;;;;;;;25.42;65.48;100635.44;1764480;79;22440;-58
2021/06/24 00:41:30;;;;;;;30.20;9.95;;;;;;;25.35;66.13;100632.27;1763747;80;21058;-58
2021/06/24 00:43:57;;;;;;;31.85;9.45;;;;;;;25.31;65.65;100632.38;1757540;79;21521;-58
2021/06/24 00:46:23;;;;;;;31.55;8.70;;;;;;;25.35;65.44;100630.92;1762865;79;23203;-58
2021/06/24 00:48:58;;;;;;;33.63;9.03;;;;;;;25.36;65.63;100642.52;1763235;79;21289;-58
2021/06/24 00:51:25;;;;;;;26.42;9.43;;;;;;;25.30;65.62;100640.17;1680044;82;21707;-58
2021/06/24 00:53:53;;;;;;;31.48;9.30;;;;;;;25.24;66.18;100638.82;1677032;82;21140;-58
2021/06/24 00:56:32;;;;;;;25.00;8.18;;;;;;;25.16;66.31;100631.80;1762373;79;21530;-57
2021/06/24 00:59:00;;;;;;;29.10;9.68;;;;;;;25.10;66.47;100638.02;1760108;79;21141;-58
2021/06/24 01:01:27;;;;;;;36.40;9.88;;;;;;;25.06;66.28;100641.66;1742382;80;21556;-58
2021/06/24 01:03:54;;;;;;;27.07;9.50;;;;;;;25.01;66.20;100640.95;1761221;79;21086;-58
2021/06/24 01:06:22;;;;;;;26.82;9.88;;;;;;;24.93;66.32;100636.31;1760756;79;21538;-58
2021/06/24 01:08:49;;;;;;;38.30;10.43;;;;;;;24.84;66.57;100639.77;1763755;79;21129;-58
2021/06/24 01:11:19;;;;;;;24.18;8.60;;;;;;;24.75;66.93;100638.35;1761429;79;21191;-58
2021/06/24 01:13:48;;;;;;;31.05;9.98;;;;;;;24.65;67.36;100643.63;1765317;79;21015;-58
2021/06/24 01:16:14;;;;;;;26.75;8.48;;;;;;;24.61;67.70;100639.72;1679872;83;21573;-58
2021/06/24 01:18:42;;;;;;;36.50;11.00;;;;;;;24.63;67.92;100644.36;1737401;80;21015;-58
2021/06/24 01:21:09;;;;;;;31.85;10.08;;;;;;;24.65;67.92;100640.13;1759882;79;21137;-58
2021/06/24 01:23:42;;;;;;;25.32;8.75;;;;;;;24.64;67.89;100639.27;1761847;80;21842;-58
2021/06/24 01:26:10;;;;;;;26.70;8.73;;;;;;;24.60;67.94;100641.27;1734316;79;21563;-58
2021/06/24 01:28:39;;;;;;;33.00;9.18;;;;;;;24.54;67.83;100646.92;1762355;79;21004;-58
2021/06/24 01:31:05;;;;;;;29.55;9.65;;;;;;;24.49;67.46;100649.41;1760011;79;22422;-58
2021/06/24 01:33:31;;;;;;;29.00;9.63;;;;;;;24.45;67.33;100644.97;1738793;80;21024;-58
2021/06/24 01:36:02;;;;;;;34.40;9.50;;;;;;;24.46;67.28;100639.06;1762176;79;22932;-59
2021/06/24 01:38:30;;;;;;;29.82;9.95;;;;;;;24.46;67.06;100643.94;1766525;80;21117;-59
2021/06/24 01:40:59;;;;;;;33.60;8.73;;;;;;;24.46;66.63;100643.94;1738649;80;21114;-58
2021/06/24 01:43:26;;;;;;;30.17;9.45;;;;;;;24.44;66.36;100647.36;1731647;80;21533;-58
2021/06/24 01:45:55;;;;;;;32.03;9.63;;;;;;;24.39;66.49;100652.51;1765519;79;21089;-58
2021/06/24 01:48:23;;;;;;;34.25;9.98;;;;;;;24.33;66.47;100655.23;1763588;79;21110;-58
2021/06/24 01:50:52;;;;;;;35.10;9.88;;;;;;;24.33;66.27;100659.27;1726458;81;21165;-58
2021/06/24 01:53:19;;;;;;;29.35;8.78;;;;;;;24.36;66.24;100663.70;1739221;80;21102;-58
2021/06/24 01:55:47;;;;;;;40.40;10.85;;;;;;;24.38;66.03;100659.47;1761263;79;21090;-58
2021/06/24 01:58:21;;;;;;;28.75;9.23;;;;;;;24.40;65.71;100660.08;1740938;80;22477;-58
2021/06/24 02:00:52;;;;;;;31.85;8.85;;;;;;;24.40;65.78;100658.20;1754938;79;21149;-58
2021/06/24 02:03:19;;;;;;;33.98;9.45;;;;;;;24.37;66.18;100665.87;1762267;79;21046;-58
2021/06/24 02:05:50;;;;;;;32.90;9.25;;;;;;;24.34;66.54;100667.63;1762346;79;21166;-58
2021/06/24 02:08:25;;;;;;;36.40;9.73;;;;;;;24.34;66.41;100661.72;1738961;80;21169;-58
2021/06/24 02:10:58;;;;;;;34.65;9.83;;;;;;;24.38;66.17;100658.94;1741312;79;21610;-58
2021/06/24 02:13:27;;;;;;;29.90;9.08;;;;;;;24.40;66.02;100658.73;1762658;79;22125;-58
2021/06/24 02:15:54;;;;;;;32.67;9.53;;;;;;;24.42;66.20;100658.00;1768321;80;21081;-58
2021/06/24 02:18:21;;;;;;;39.73;10.43;;;;;;;24.41;66.28;100660.37;1736330;79;21450;-58
2021/06/24 02:20:49;;;;;;;38.55;10.72;;;;;;;24.40;66.49;100662.77;1708988;82;21161;-57
2021/06/24 02:23:23;;;;;;;35.73;10.13;;;;;;;24.38;66.55;100662.97;1768061;79;21730;-57
2021/06/24 02:25:52;;;;;;;33.95;8.78;;;;;;;24.38;66.62;100654.91;1739668;80;21277;-58
2021/06/24 02:28:20;;;;;;;33.55;8.98;;;;;;;24.43;66.48;100654.30;1771086;80;21141;-58
2021/06/24 02:30:51;;;;;;;30.00;9.10;;;;;;;24.46;66.17;100657.89;1770669;79;22297;-58
2021/06/24 02:33:19;;;;;;;38.55;10.20;;;;;;;24.45;66.01;100654.91;1769344;79;21157;-58
2021/06/24 02:35:50;;;;;;;42.03;10.18;;;;;;;24.40;66.30;100648.80;1768496;79;21054;-57
2021/06/24 02:38:18;;;;;;;41.90;10.85;;;;;;;24.35;66.04;100650.47;1768466;79;21106;-58
2021/06/24 02:40:50;;;;;;;30.75;10.58;;;;;;;24.27;65.63;100651.48;1771461;80;21145;-58
2021/06/24 02:43:17;;;;;;;33.60;10.48;;;;;;;24.20;65.49;100654.17;1746433;79;21105;-58
2021/06/24 02:45:44;;;;;;;35.23;10.70;;;;;;;24.18;65.46;100654.91;1752808;80;21058;-58
2021/06/24 02:48:15;;;;;;;37.98;10.05;;;;;;;24.22;65.26;100656.13;1733110;80;21109;-59
2021/06/24 02:50:42;;;;;;;31.85;10.38;;;;;;;24.23;65.06;100660.48;1710295;82;21147;-57
2021/06/24 02:53:10;;;;;;;41.63;9.30;;;;;;;24.21;65.19;100659.88;1729809;80;21059;-57
2021/06/24 02:55:40;;;;;;;27.45;8.55;;;;;;;24.17;65.32;100661.30;1741513;80;21054;-57
2021/06/24 02:58:07;;;;;;;43.20;10.15;;;;;;;24.12;65.57;100659.75;1769753;79;21486;-57
2021/06/24 03:00:45;;;;;;;33.40;9.95;;;;;;;24.13;65.60;100660.59;1749392;79;21669;-58
2021/06/24 03:03:16;;;;;;;36.70;9.40;;;;;;;24.19;65.51;100663.30;1766322;79;21135;-57
2021/06/24 03:05:47;;;;;;;36.98;9.13;;;;;;;24.24;65.46;100667.53;1732254;79;21073;-57
2021/06/24 03:08:15;;;;;;;36.25;10.38;;;;;;;24.29;65.12;100670.43;1734916;80;21082;-57
2021/06/24 03:10:43;;;;;;;35.65;9.55;;;;;;;24.30;64.50;100664.52;1744061;80;21089;-55
2021/06/24 03:13:10;;;;;;;37.03;9.05;;;;;;;24.30;64.10;100674.75;1768589;79;21184;-58
2021/06/24 03:15:37;;;;;;;44.90;11.25;;;;;;;24.30;63.76;100672.06;1772394;80;22771;-57
2021/06/24 03:18:04;;;;;;;38.25;9.45;;;;;;;24.27;63.46;100664.93;1767984;80;21608;-56
2021/06/24 03:20:31;;;;;;;44.53;10.13;;;;;;;24.24;63.42;100661.30;1770088;79;21062;-57
2021/06/24 03:22:59;;;;;;;39.10;9.68;;;;;;;24.26;63.10;100663.30;1769270;79;21077;-56
2021/06/24 03:25:26;;;;;;;30.45;7.85;;;;;;;24.32;62.95;100661.11;1770071;80;21051;-57
2021/06/24 03:27:53;;;;;;;34.98;10.08;;;;;;;24.36;62.65;100658.83;1770812;79;21136;-58
2021/06/24 03:30:22;;;;;;;35.05;8.25;;;;;;;24.39;62.59;100661.11;1765537;79;21735;-58
2021/06/24 03:32:50;;;;;;;37.83;9.25;;;;;;;24.38;62.66;100656.25;1771699;79;20991;-58
2021/06/24 03:35:17;;;;;;;29.90;9.35;;;;;;;24.38;62.74;100656.25;1708958;82;21162;-56
2021/06/24 03:37:43;;;;;;;31.15;8.68;;;;;;;24.37;62.78;100655.11;1769236;80;21777;-56
2021/06/24 03:40:16;;;;;;;39.23;8.90;;;;;;;24.42;62.84;100658.00;1768552;79;21116;-56
2021/06/24 03:42:40;;;;;;;33.70;9.95;;;;;;;24.51;62.72;100653.23;1768662;79;21482;-57
2021/06/24 03:45:09;;;;;;;28.30;8.50;;;;;;;24.56;62.65;100652.97;1765707;79;21025;-56
2021/06/24 03:47:36;;;;;;;29.45;9.05;;;;;;;24.60;62.90;100654.72;1746314;80;21086;-57
2021/06/24 03:50:06;;;;;;;36.73;10.28;;;;;;;24.60;62.78;100649.34;1739075;80;21114;-56
2021/06/24 03:52:32;;;;;;;39.35;10.72;;;;;;;24.62;62.58;100645.92;1746822;80;21051;-57
2021/06/24 03:54:59;;;;;;;32.65;9.33;;;;;;;24.61;62.51;100651.83;1772267;79;21111;-56
2021/06/24 03:57:26;;;;;;;34.43;9.35;;;;;;;24.66;62.53;100652.02;1680934;82;21128;-57
2021/06/24 03:59:54;;;;;;;40.78;11.15;;;;;;;24.74;62.33;100653.64;1771841;79;21528;-57
2021/06/24 04:02:22;;;;;;;32.80;10.40;;;;;;;24.79;62.26;100654.37;1745872;79;21110;-57
2021/06/24 04:04:50;;;;;;;31.90;9.05;;;;;;;24.80;62.21;100653.34;1739988;80;21089;-57
2021/06/24 04:07:19;;;;;;;28.50;9.15;;;;;;;24.80;62.32;100648.78;1738442;80;21073;-57
2021/06/24 04:09:46;;;;;;;35.35;8.60;;;;;;;24.82;62.39;100648.05;1716474;80;22214;-57
2021/06/24 04:12:13;;;;;;;43.45;10.48;;;;;;;24.85;62.37;100653.54;1767004;80;21074;-57
2021/06/24 04:14:51;;;;;;;38.13;10.15;;;;;;;24.93;62.39;100655.16;1734938;80;21141;-57
2021/06/24 04:17:23;;;;;;;32.60;9.25;;;;;;;25.04;62.33;100659.38;1766733;80;22000;-58
2021/06/24 04:19:52;;;;;;;34.90;9.45;;;;;;;25.10;62.05;100655.02;1768986;79;21097;-56
2021/06/24 04:22:21;;;;;;;40.73;9.75;;;;;;;25.14;61.59;100655.42;1766742;79;21061;-56
2021/06/24 04:25:02;;;;;;;33.02;9.98;;;;;;;25.19;61.31;100657.77;1729485;80;21136;-57
2021/06/24 04:27:29;;;;;;;45.55;10.88;;;;;;;25.27;61.03;100662.64;1766356;80;21121;-57
2021/06/24 04:29:56;;;;;;;37.45;9.45;;;;;;;25.31;60.33;100665.23;1746335;79;21832;-57
2021/06/24 04:32:23;;;;;;;26.42;9.08;;;;;;;25.35;60.18;100668.63;1766025;79;21105;-57
2021/06/24 04:34:50;;;;;;;36.88;7.83;;;;;;;25.42;60.12;100674.49;1765878;79;21118;-58
2021/06/24 04:37:18;;;;;;;36.55;9.20;;;;;;;25.47;59.93;100666.09;1765191;80;21156;-57
2021/06/24 04:39:45;;;;;;;30.55;8.85;;;;;;;25.55;59.83;100668.55;1706727;82;21074;-58
2021/06/24 04:42:12;;;;;;;31.65;8.68;;;;;;;25.68;59.25;100662.24;1740358;80;21456;-57
2021/06/24 04:44:40;;;;;;;38.55;8.80;;;;;;;25.78;59.11;100657.73;1764919;80;21584;-58
2021/06/24 04:47:09;;;;;;;30.20;9.08;;;;;;;25.83;58.34;100657.91;1714843;79;21565;-58
2021/06/24 04:49:36;;;;;;;30.23;8.88;;;;;;;25.86;58.29;100653.43;1769643;80;21336;-57
2021/06/24 04:52:08;;;;;;;40.33;9.18;;;;;;;25.89;58.17;100655.70;1764808;79;21062;-58
2021/06/24 04:54:45;;;;;;;38.00;8.85;;;;;;;25.92;57.51;100656.62;1740379;80;21152;-57
2021/06/24 04:57:12;;;;;;;35.08;9.43;;;;;;;25.95;57.48;100647.28;1734533;80;21103;-58
2021/06/24 04:59:41;;;;;;;33.23;8.15;;;;;;;26.00;57.64;100645.29;1761306;79;21042;-57
2021/06/24 05:02:26;;;;;;;30.62;7.92;;;;;;;26.02;57.75;100644.00;1765038;79;21113;-57
2021/06/24 05:05:12;;;;;;;33.90;7.97;;;;;;;26.08;58.09;100637.75;1731204;79;21090;-57
2021/06/24 05:07:39;;;;;;;46.53;7.97;;;;;;;26.21;57.74;100635.48;1766813;79;21039;-56
2021/06/24 05:10:07;;;;;;;30.85;7.80;;;;;;;26.38;57.48;100642.48;1766532;79;21072;-58
2021/06/24 05:12:35;;;;;;;23.10;7.28;;;;;;;26.50;57.34;100638.01;1767640;80;21121;-57
2021/06/24 05:15:03;;;;;;;25.17;7.28;;;;;;;26.59;56.71;100633.14;1767009;79;21053;-58
2021/06/24 05:17:29;;;;;;;25.95;7.35;;;;;;;26.67;56.41;100634.23;1767271;80;21140;-57
2021/06/24 05:19:58;;;;;;;27.13;6.35;;;;;;;26.74;55.90;100629.31;1768134;79;23034;-57
2021/06/24 05:22:26;;;;;;;35.85;7.70;;;;;;;26.80;55.05;100634.63;1769495;79;21019;-58
2021/06/24 05:24:52;;;;;;;26.97;7.42;;;;;;;26.86;55.31;100638.30;1769961;79;21034;-59
2021/06/24 05:27:19;;;;;;;33.98;8.13;;;;;;;26.95;55.40;100640.17;1767773;79;21057;-58
2021/06/24 05:32:52;;;;;;;20.50;6.95;;;;;;;27.15;54.10;100638.08;1787989;78;24040;-57
2021/06/24 05:35:19;;;;;;;20.90;5.53;;;;;;;27.21;53.85;100642.56;1772487;80;21085;-56
2021/06/24 05:37:46;;;;;;;17.17;6.17;;;;;;;27.32;53.63;100649.63;1773039;79;22666;-57
2021/06/24 05:40:17;;;;;;;21.45;6.60;;;;;;;27.43;53.03;100650.22;1773532;79;21440;-57
2021/06/24 05:42:43;;;;;;;26.75;6.03;;;;;;;27.54;52.98;100649.45;1774941;79;21494;-58
2021/06/24 05:45:12;;;;;;;17.23;5.33;;;;;;;27.66;52.14;100654.09;1714859;81;21090;-58
2021/06/24 05:47:40;;;;;;;19.92;6.97;;;;;;;27.75;51.99;100652.69;1697253;82;21038;-58
2021/06/24 05:50:08;;;;;;;18.20;5.80;;;;;;;27.83;51.74;100655.07;1718090;81;21105;-57
2021/06/24 05:52:37;;;;;;;16.30;5.15;;;;;;;27.88;51.59;100657.91;1693135;82;22257;-57
2021/06/24 05:55:05;;;;;;;20.72;5.65;;;;;;;27.95;50.57;100654.59;1718522;81;21134;-57
2021/06/24 05:57:31;;;;;;;21.55;5.58;;;;;;;28.01;49.96;100654.72;1718364;82;21101;-58
2021/06/24 05:59:59;;;;;;;21.65;5.90;;;;;;;28.04;50.21;100656.97;1717785;81;21390;-56
2021/06/24 06:02:25;;;;;;;22.70;5.85;;;;;;;28.09;50.12;100659.80;1715765;81;21184;-57
2021/06/24 06:04:52;;;;;;;22.10;6.95;;;;;;;28.14;49.16;100643.19;1718440;81;21082;-56
2021/06/24 06:07:18;;;;;;;23.83;6.58;;;;;;;28.19;49.25;100647.88;1717974;81;21085;-56
2021/06/24 06:09:45;;;;;;;20.02;5.60;;;;;;;28.23;48.94;100645.55;1718547;82;21493;-57
2021/06/24 06:12:11;;;;;;;17.70;5.37;;;;;;;28.27;48.99;100651.59;1688918;82;21158;-57
2021/06/24 06:14:37;;;;;;;16.97;6.25;;;;;;;28.30;49.26;100645.72;1690714;82;21138;-56
2021/06/24 06:17:06;;;;;;;25.10;7.20;;;;;;;28.33;48.87;100646.61;1718882;82;21230;-57
2021/06/24 06:19:34;;;;;;;24.75;5.75;;;;;;;28.35;48.64;100640.42;1718104;81;21117;-57
2021/06/24 06:22:01;;;;;;;19.70;6.10;;;;;;;28.38;48.55;100644.56;1719149;82;21097;-57
2021/06/24 06:24:27;;;;;;;17.05;5.35;;;;;;;28.40;48.54;100643.78;1717614;81;21506;-56
2021/06/24 06:26:54;;;;;;;19.35;5.17;;;;;;;28.44;48.76;100645.48;1719831;82;21121;-57
2021/06/24 06:29:21;;;;;;;20.92;6.10;;;;;;;28.49;48.83;100646.95;1715692;81;21275;-57
2021/06/24 06:31:47;;;;;;;19.05;6.30;;;;;;;28.52;48.78;100645.14;1685009;82;21129;-57
2021/06/24 06:34:14;;;;;;;22.32;5.67;;;;;;;28.56;48.84;100642.81;1686563;82;21755;-58
2021/06/24 06:36:40;;;;;;;21.07;6.78;;;;;;;28.60;48.72;100639.94;1685677;82;21487;-59
2021/06/24 06:39:07;;;;;;;21.20;6.30;;;;;;;28.64;48.63;100634.34;1683893;82;21344;-60
2021/06/24 06:41:34;;;;;;;23.62;5.70;;;;;;;28.66;48.51;100630.31;1656184;83;21085;-57
2021/06/24 06:44:01;;;;;;;21.50;6.28;;;;;;;28.69;48.66;100635.27;1707296;82;21098;-61
2021/06/24 06:46:28;;;;;;;23.65;6.12;;;;;;;28.75;48.64;100627.25;1721660;81;21093;-59
2021/06/24 06:48:54;;;;;;;21.05;4.85;;;;;;;28.82;48.63;100632.03;1722690;81;21100;-59
2021/06/24 06:51:23;;;;;;;23.15;6.17;;;;;;;28.93;48.66;100633.05;1684625;83;21128;-59
2021/06/24 06:53:50;;;;;;;18.00;4.62;;;;;;;29.01;48.31;100633.50;1712105;82;21554;-60
2021/06/24 06:56:19;;;;;;;19.80;5.10;;;;;;;29.13;47.81;100628.59;1717575;81;21589;-59
2021/06/24 06:58:46;;;;;;;20.95;5.37;;;;;;;29.26;47.44;100629.70;1699184;81;21075;-60
2021/06/24 07:01:13;;;;;;;24.57;6.42;;;;;;;29.37;47.90;100628.00;1721865;81;22434;-59
2021/06/24 07:03:39;;;;;;;19.07;5.50;;;;;;;29.46;46.16;100623.30;1654782;84;21442;-60
2021/06/24 07:06:07;;;;;;;19.52;5.30;;;;;;;29.55;46.90;100622.92;1687338;82;22687;-60
2021/06/24 07:08:33;;;;;;;24.15;5.95;;;;;;;29.67;47.14;100614.17;1686532;81;21082;-59
2021/06/24 07:11:02;;;;;;;22.52;7.37;;;;;;;29.76;46.42;100614.08;1721540;81;21159;-60
2021/06/24 07:13:29;;;;;;;14.23;5.20;;;;;;;29.86;46.65;100611.27;1655314;84;21852;-60
2021/06/24 07:15:57;;;;;;;22.37;5.95;;;;;;;29.97;46.74;100611.73;1707661;82;21126;-60
2021/06/24 07:18:25;;;;;;;24.27;5.65;;;;;;;30.06;45.82;100608.91;1719656;81;21374;-60
2021/06/24 07:20:53;;;;;;;18.90;6.08;;;;;;;30.12;45.48;100606.55;1721473;81;21070;-60
2021/06/24 07:23:20;;;;;;;16.73;5.42;;;;;;;30.18;46.04;100606.92;1719384;81;21129;-60
2021/06/24 07:25:47;;;;;;;21.33;6.10;;;;;;;30.24;45.36;100609.17;1694994;83;21734;-60
2021/06/24 07:28:14;;;;;;;22.17;6.00;;;;;;;30.32;45.43;100610.11;1718548;81;21952;-61
2021/06/24 07:30:41;;;;;;;18.77;5.70;;;;;;;30.38;45.47;100607.80;1717916;81;21094;-60
2021/06/24 07:33:08;;;;;;;18.15;5.60;;;;;;;30.46;45.36;100610.60;1735205;80;21093;-60
2021/06/24 07:35:35;;;;;;;16.12;5.25;;;;;;;30.53;44.87;100611.27;1738082;80;21133;-61
2021/06/24 07:38:03;;;;;;;15.28;4.65;;;;;;;30.61;44.83;100618.14;1737167;80;21097;-57
2021/06/24 07:40:30;;;;;;;18.73;5.28;;;;;;;30.68;45.44;100617.96;1737613;80;21100;-55
2021/06/24 07:42:56;;;;;;;15.15;4.80;;;;;;;30.73;45.45;100622.10;1739057;80;21077;-56
2021/06/24 07:45:23;;;;;;;15.38;4.75;;;;;;;30.80;45.35;100622.77;1708499;80;21054;-57
2021/06/24 07:47:53;;;;;;;17.10;5.28;;;;;;;30.88;45.34;100626.92;1738974;80;21145;-57
2021/06/24 07:50:19;;;;;;;20.10;5.30;;;;;;;30.94;44.98;100624.59;1738719;80;21125;-56
2021/06/24 07:52:46;;;;;;;17.65;4.62;;;;;;;30.98;43.75;100625.71;1738550;80;21788;-57
2021/06/24 07:55:13;;;;;;;20.00;4.87;;;;;;;31.00;44.34;100629.53;1737172;80;21082;-56
2021/06/24 07:57:40;;;;;;;19.40;4.80;;;;;;;31.01;43.79;100635.27;1710370;80;21201;-56
2021/06/24 08:00:08;;;;;;;15.20;4.60;;;;;;;31.03;43.98;100628.48;1739033;80;21169;-56
2021/06/24 08:02:36;;;;;;;14.87;4.85;;;;;;;31.09;43.84;100630.75;1710936;82;21592;-57
2021/06/24 08:05:05;;;;;;;16.20;4.40;;;;;;;31.14;43.56;100628.64;1739171;80;21115;-57
2021/06/24 08:07:32;;;;;;;16.37;4.78;;;;;;;31.16;43.90;100633.27;1738738;80;21076;-57
2021/06/24 08:10:02;;;;;;;20.70;4.67;;;;;;;31.18;43.99;100627.05;1708323;80;21770;-57
2021/06/24 08:12:27;;;;;;;17.52;5.55;;;;;;;31.21;43.99;100621.10;1701743;80;21589;-58
2021/06/24 08:14:55;;;;;;;16.45;5.00;;;;;;;31.24;44.49;100631.47;1740304;80;21391;-57
2021/06/24 08:17:21;;;;;;;17.85;4.87;;;;;;;31.22;44.70;100627.64;1739550;80;22241;-57
2021/06/24 08:19:48;;;;;;;18.95;5.85;;;;;;;31.25;45.17;100635.81;1703631;82;21150;-56
2021/06/24 08:22:15;;;;;;;19.30;5.53;;;;;;;31.29;45.12;100635.05;1670674;85;21120;-56
2021/06/24 08:24:41;;;;;;;21.77;6.20;;;;;;;31.35;44.85;100633.75;1707902;81;21078;-56
2021/06/24 08:27:08;;;;;;;17.45;5.92;;;;;;;31.39;43.96;100630.79;1705120;80;21086;-58
2021/06/24 08:29:35;;;;;;;20.30;6.50;;;;;;;31.42;44.57;100634.36;1739992;80;21959;-57
2021/06/24 08:32:03;;;;;;;18.23;5.37;;;;;;;31.48;44.39;100634.16;1740086;80;21082;-57
2021/06/24 08:34:29;;;;;;;15.38;4.85;;;;;;;31.57;44.05;100631.86;1705920;82;21090;-57
2021/06/24 08:36:56;;;;;;;18.52;5.53;;;;;;;31.61;44.04;100638.41;1683152;83;21098;-55
2021/06/24 08:39:23;;;;;;;14.35;5.22;;;;;;;31.62;43.61;100638.70;1704232;82;21580;-57
2021/06/24 08:41:51;;;;;;;15.72;5.80;;;;;;;31.63;43.88;100636.80;1742920;80;21184;-56
2021/06/24 08:44:21;;;;;;;18.85;5.33;;;;;;;31.70;43.79;100631.14;1743861;80;21331;-56
2021/06/24 08:46:51;;;;;;;21.45;6.12;;;;;;;31.77;43.83;100629.02;1712636;80;21292;-56
2021/06/24 08:49:16;;;;;;;18.70;6.45;;;;;;;31.83;43.99;100634.80;1741654;80;21097;-57
2021/06/24 08:51:43;;;;;;;27.25;5.75;;;;;;;31.91;43.85;100632.12;1675272;80;22298;-56
2021/06/24 08:54:11;;;;;;;21.85;5.85;;;;;;;32.00;43.25;100635.48;1703412;82;21400;-57
2021/06/24 08:56:37;;;;;;;19.12;5.60;;;;;;;32.07;43.03;100631.77;1654925;83;21122;-56
2021/06/24 08:59:04;;;;;;;18.30;6.35;;;;;;;32.13;43.09;100634.81;1703635;82;21098;-57
2021/06/24 09:01:54;;;;;;;14.65;5.25;;;;;;;32.21;43.11;100639.23;1710432;80;21105;-56
2021/06/24 09:04:30;;;;;;;25.70;6.87;;;;;;;32.27;42.94;100635.98;1744268;80;21105;-58
2021/06/24 09:07:20;;;;;;;15.32;5.05;;;;;;;32.36;42.72;100634.95;1744869;80;21129;-57
2021/06/24 09:09:56;;;;;;;16.87;5.90;;;;;;;32.39;43.05;100633.07;1742736;80;20974;-56
2021/06/24 09:12:23;;;;;;;21.97;7.03;;;;;;;32.43;42.98;100630.64;1745995;80;21161;-57
2021/06/24 09:14:59;;;;;;;21.57;6.10;;;;;;;32.46;42.43;100628.75;1744432;80;21164;-57
2021/06/24 09:17:40;;;;;;;17.60;5.75;;;;;;;32.47;42.36;100627.69;1744870;80;21580;-57
2021/06/24 09:20:25;;;;;;;22.00;6.03;;;;;;;32.48;42.12;100621.14;1745496;80;21322;-57
2021/06/24 09:23:18;;;;;;;11.25;5.55;;;;;;;32.51;42.20;100621.42;1742023;80;21069;-57
2021/06/24 09:25:53;;;;;;;20.75;6.05;;;;;;;32.54;41.89;100620.09;1729783;80;21124;-57
2021/06/24 09:28:16;;;;;;;17.48;5.42;;;;;;;32.58;42.48;100616.58;1743392;80;21106;-58
2021/06/24 09:30:44;;;;;;;19.80;6.62;;;;;;;32.66;42.84;100614.46;1744511;80;21742;-57
2021/06/24 09:33:15;;;;;;;23.27;6.12;;;;;;;32.72;41.85;100615.59;1753166;80;21134;-57
2021/06/24 09:35:45;;;;;;;18.70;5.75;;;;;;;32.76;42.72;100615.88;1759701;79;21034;-57
2021/06/24 09:38:14;;;;;;;17.70;6.12;;;;;;;32.82;42.57;100607.16;1757710;79;21664;-58
2021/06/24 09:40:56;;;;;;;20.77;5.78;;;;;;;32.90;42.14;100608.02;1760089;80;21568;-58
2021/06/24 09:43:33;;;;;;;14.47;5.00;;;;;;;32.92;41.64;100600.42;1735219;80;21065;-57
2021/06/24 09:46:14;;;;;;;14.95;4.62;;;;;;;32.96;41.50;100602.32;1758926;79;21114;-58
2021/06/24 09:48:45;;;;;;;14.30;4.40;;;;;;;33.02;42.24;100599.09;1761723;80;21053;-58
2021/06/24 09:51:21;;;;;;;13.78;4.40;;;;;;;33.07;41.37;100595.53;1760839;79;21101;-58
2021/06/24 09:53:53;;;;;;;13.90;4.78;;;;;;;33.08;40.54;100592.55;1761605;79;21110;-57
2021/06/24 09:56:30;;;;;;;13.30;3.52;;;;;;;33.10;39.10;100601.30;1764475;79;21086;-57
2021/06/24 09:59:00;;;;;;;9.28;3.95;;;;;;;33.14;39.41;100594.20;1761915;79;21057;-56
2021/06/24 10:01:44;;;;;;;12.10;3.77;;;;;;;33.25;39.02;100594.26;1760748;80;21053;-60
2021/06/24 10:04:21;;;;;;;10.48;3.05;;;;;;;33.35;38.86;100594.83;1759703;80;21074;-57
2021/06/24 10:06:48;;;;;;;12.98;3.27;;;;;;;33.43;38.26;100591.02;1735568;80;21145;-57
2021/06/24 10:09:16;;;;;;;11.65;3.25;;;;;;;33.55;38.04;100592.67;1760786;80;21562;-58
2021/06/24 10:11:43;;;;;;;15.93;3.80;;;;;;;33.63;37.57;100587.49;1759141;79;21242;-56
2021/06/24 10:14:09;;;;;;;11.88;3.25;;;;;;;33.72;37.50;100584.25;1734278;80;21077;-56
2021/06/24 10:16:38;;;;;;;12.95;4.37;;;;;;;33.75;37.08;100584.52;1758753;79;21054;-57
2021/06/24 10:19:05;;;;;;;13.88;3.75;;;;;;;33.76;36.38;100586.70;1765458;80;21106;-56
2021/06/24 10:21:34;;;;;;;11.03;3.10;;;;;;;33.78;37.43;100585.90;1760749;79;21554;-57
2021/06/24 10:24:11;;;;;;;17.62;3.65;;;;;;;33.77;37.22;100577.43;1733768;80;22339;-56
2021/06/24 10:26:43;;;;;;;14.55;3.47;;;;;;;33.78;37.02;100580.44;1760561;80;21114;-57
2021/06/24 10:29:20;;;;;;;16.70;3.87;;;;;;;33.77;36.51;100581.52;1763003;79;21425;-56
2021/06/24 10:31:50;;;;;;;8.63;3.35;;;;;;;33.76;36.26;100579.34;1739213;80;21145;-57
2021/06/24 10:34:18;;;;;;;15.80;3.70;;;;;;;33.79;36.22;100571.14;1738676;80;21093;-56
2021/06/24 10:37:14;;;;;;;12.68;3.42;;;;;;;33.83;36.73;100569.52;1770806;79;21156;-57
2021/06/24 10:39:42;;;;;;;14.35;3.72;;;;;;;33.87;36.39;100571.96;1767293;79;21071;-61
2021/06/24 10:42:11;;;;;;;12.40;3.47;;;;;;;33.88;36.42;100568.16;1769163;79;21422;-57
2021/06/24 10:44:48;;;;;;;14.78;3.75;;;;;;;33.92;36.68;100568.42;1768803;79;21073;-56
2021/06/24 10:47:33;;;;;;;13.40;3.58;;;;;;;33.95;37.03;100569.23;1768281;79;21116;-57
2021/06/24 10:50:34;;;;;;;9.30;3.65;;;;;;;34.02;36.95;100564.30;1746617;79;21020;-57
2021/06/24 10:53:09;;;;;;;8.48;3.52;;;;;;;34.05;35.65;100563.76;1771959;79;21574;-57
2021/06/24 10:55:41;;;;;;;8.23;3.30;;;;;;;34.04;36.69;100560.22;1767160;80;21759;-56
2021/06/24 10:58:19;;;;;;;16.12;3.37;;;;;;;34.13;37.20;100555.53;1769907;80;21101;-56
2021/06/24 11:00:59;;;;;;;14.00;3.98;;;;;;;34.23;36.97;100554.20;1768068;79;21057;-57
2021/06/24 11:03:34;;;;;;;10.25;3.42;;;;;;;34.34;37.20;100549.52;1768850;80;22704;-58
2021/06/24 11:06:17;;;;;;;16.60;3.83;;;;;;;34.43;37.65;100547.30;1767269;79;21105;-56
2021/06/24 11:08:45;;;;;;;14.23;3.20;;;;;;;34.52;36.75;100551.64;1771701;79;21091;-57
2021/06/24 11:11:16;;;;;;;9.30;3.33;;;;;;;34.58;36.85;100549.16;1769798;79;21085;-58
2021/06/24 11:13:48;;;;;;;13.05;3.65;;;;;;;34.65;36.65;100545.29;1771033;79;21132;-56
2021/06/24 11:16:20;;;;;;;8.55;3.35;;;;;;;34.70;37.03;100542.00;1769175;79;21752;-57
2021/06/24 11:19:05;;;;;;;12.67;3.90;;;;;;;34.81;36.79;100541.98;1770559;80;21101;-57
2021/06/24 11:21:38;;;;;;;8.57;3.83;;;;;;;34.89;36.30;100534.56;1767828;79;21070;-57
2021/06/24 11:24:15;;;;;;;14.78;3.87;;;;;;;35.01;36.19;100531.48;1767294;79;21498;-57
2021/06/24 11:26:50;;;;;;;13.13;4.00;;;;;;;35.07;36.56;100535.80;1767177;79;21387;-57
2021/06/24 11:29:42;;;;;;;12.30;3.47;;;;;;;35.10;35.13;100527.84;1768348;80;21115;-57
2021/06/24 11:32:15;;;;;;;10.93;3.80;;;;;;;35.12;35.70;100526.19;1768918;79;21120;-57